Nearby METAR Reports

 

KSJC - San Jose, California, USA
Distance from station: NE 14km
Updated: 29/05/2020 21:53
Mostly cloudy
Mostly cloudy
 Wind from SSW
Wind: SSW 17 km/h
Temperature: 26°C
Dew Point: 12°C
Humidity: 42%
Barometer: 1010.8 hPa
Clouds: Mostly cloudy
Visibility: 16 km
Cloud details: Few Clouds 488 m
Partly cloudy 2134 m
Mostly cloudy 3048 m
2020/05/29 19:53 KSJC 291953Z 20009KT 10SM FEW016 SCT070 BKN100 26/12 A2985 RMK AO2 SLP108 ACC N AND DSNT E-W T02560122
KNUQ - Moffett Nas/Mtn, California, USA
Distance from station: N 14km
Updated: 29/05/2020 15:55
NOT Current
Overcast
Overcast
 Wind from SE
Wind: SE 9 km/h
Temperature: 15°C
Dew Point: 12°C
Humidity: 82%
Barometer: 1012.5 hPa
Clouds: Overcast
Visibility: 16 km
Cloud details: Overcast 396 m
2020/05/29 13:55 KNUQ 291355Z AUTO 13005KT 10SM OVC013 15/12 A2990 RMK AO2
 
KPAO - Palo Alto, California, USA
Distance from station: NNW 23km
Updated: 29/05/2020 20:47
NOT Current
Partly cloudy
Partly cloudy
 Wind from N
Wind: N 17 km/h
Temperature: 21°C
Dew Point: 14°C
Humidity: 64%
Barometer: 1011.9 hPa
Clouds: Partly cloudy
Visibility: 16 km
Cloud details: Partly cloudy 3048 m
2020/05/29 18:47 KPAO 291847Z 35009KT 10SM SCT1000 21/14 A2988
KRHV - San Jose/Reid, California, USA
Distance from station: ENE 19km
Updated: 29/05/2020 21:47
Mostly cloudy
Mostly cloudy
 Wind from SW
Wind: SW 19 km/h
Temperature: 26°C
Dew Point: 13°C
Humidity: 45%
Barometer: 1011.2 hPa
Clouds: Mostly cloudy
Visibility: 16 km
Cloud details: Partly cloudy 2134 m
Mostly cloudy 4572 m
2020/05/29 19:47 KRHV 291947Z 22010KT 10SM SCT070 BKN150 26/13 A2986
 
KOAK - Oakland, California, USA
Distance from station: NNW 50km
Updated: 29/05/2020 21:53
Mostly cloudy
Mostly cloudy
 Wind from NW
Wind: NW 15 km/h
Temperature: 21°C
Dew Point: 13°C
Humidity: 60%
Barometer: 1012.2 hPa
Clouds: Mostly cloudy
Visibility: 16 km
Cloud details: Few Clouds 305 m
Partly cloudy 762 m
Mostly cloudy 6096 m
2020/05/29 19:53 KOAK 291953Z 31008KT 10SM FEW010 SCT025 BKN200 21/13 A2989 RMK AO2 SLP120 T02110128
KSQL - San Carlos Airpo, California, USA
Distance from station: NW 34km
Updated: 29/05/2020 21:47
Partly cloudy
Partly cloudy
 Wind from NNW
Wind: NNW 11 km/h
Temperature: 21°C
Dew Point: 14°C
Humidity: 64%
Barometer: 1011.5 hPa
Clouds: Partly cloudy
Visibility: 16 km
Cloud details: Partly cloudy 3048 m
2020/05/29 19:47 KSQL 291947Z 34006KT 10SM SCT100 21/14 A2987
 
KSFO - San Francisco, California, USA
Distance from station: NW 49km
Updated: 29/05/2020 21:56
Mostly cloudy
Mostly cloudy
 Wind from NNE
Wind: NNE 11 km/h
Temperature: 20°C
Dew Point: 13°C
Humidity: 64%
Barometer: 1011.5 hPa
Clouds: Mostly cloudy
Visibility: 16 km
Cloud details: Few Clouds 274 m
Few Clouds 762 m
Mostly cloudy 5486 m
2020/05/29 19:56 KSFO 291956Z 02006KT 10SM FEW009 FEW025 BKN180 20/13 A2987 RMK AO2 SLP115 T02000133
KE16 - San Martin, California, USA
Distance from station: ESE 43km
Updated: 29/05/2020 21:45
Clear
Clear
 Wind from SSW
Wind: SSW 22 km/h
Temperature: 20°C
Dew Point: 12°C
Humidity: 60%
Barometer: 1012.9 hPa
Clouds: Clear
Visibility: 16 km
2020/05/29 19:45 KE16 291945Z AUTO 20012KT 10SM CLR 20/12 A2991 RMK AO2
 
KWVI - Watsonville, California, USA
Distance from station: SSE 44km
Updated: 29/05/2020 21:53
Overcast
Overcast
 Wind from WNW
Wind: WNW 15 km/h
Temperature: 16°C
Dew Point: 13°C
Humidity: 83%
Barometer: 1013.9 hPa
Clouds: Overcast
Visibility: 16 km
Cloud details: Overcast 274 m
2020/05/29 19:53 KWVI 291953Z AUTO 29008KT 10SM OVC009 16/13 A2994 RMK AO2 SLP138 T01610128
KHAF - Half Moon Bay, California, USA
Distance from station: WNW 50km
Updated: 29/05/2020 21:55
Clear
Clear
 Wind from S
Wind: S 24 km/h, Gust: 31 km/h
Temperature: 15°C
Dew Point: 13°C
Humidity: 88%
Barometer: 1013.5 hPa
Clouds: Clear
Visibility: 16 km
2020/05/29 19:55 KHAF 291955Z AUTO 19013G17KT 10SM CLR 15/13 A2993 RMK AO2
 
KHWD - Hayward, California, USA
Distance from station: N 44km
Updated: 29/05/2020 21:54
Clear
Clear
 Wind from W
Wind: W 17 km/h
Temperature: 22°C
Dew Point: 13°C
Humidity: 57%
Barometer: 1011.5 hPa
Clouds: Clear
Visibility: 16 km
2020/05/29 19:54 KHWD 291954Z 28009KT 10SM CLR 22/13 A2987 RMK AO2 SLP124 T02170133
KLVK - Livermore, California, USA
Distance from station: NNE 51km
Updated: 29/05/2020 21:53
Clear
Clear
 Wind from WNW
Wind: WNW 20 km/h
Temperature: 27°C
Heat Index: 27°C
Dew Point: 13°C
Humidity: 42%
Barometer: 1010.5 hPa
Clouds: Clear
Visibility: 16 km
2020/05/29 19:53 KLVK 291953Z 30011KT 10SM CLR 27/13 A2984 RMK AO2 SLP099 T02670128